createdAt,value
2022-08-16T00:00:04.417Z,68.40
2022-08-16T00:02:33.468Z,68.60
2022-08-16T00:05:01.224Z,68.70
2022-08-16T00:07:29.792Z,68.80
2022-08-16T00:09:58.744Z,69.00
2022-08-16T00:12:28.047Z,69.10
2022-08-16T00:14:57.137Z,69.20
2022-08-16T00:17:25.920Z,69.30
2022-08-16T00:19:54.975Z,69.30
2022-08-16T00:22:27.949Z,69.30
2022-08-16T00:24:55.432Z,69.30
2022-08-16T00:27:23.442Z,69.30
2022-08-16T00:30:08.256Z,69.30
2022-08-16T00:32:38.618Z,69.40
2022-08-16T00:35:15.674Z,69.50
2022-08-16T00:37:57.924Z,69.40
2022-08-16T00:40:53.791Z,69.60
2022-08-16T00:43:26.358Z,69.70
2022-08-16T00:46:33.611Z,69.70
2022-08-16T00:49:01.059Z,69.70
2022-08-16T00:51:29.821Z,69.60
2022-08-16T00:53:58.841Z,69.60
2022-08-16T00:56:58.647Z,69.60
2022-08-16T00:59:23.757Z,69.60
2022-08-16T01:01:52.366Z,69.70
2022-08-16T01:04:29.444Z,69.70
2022-08-16T01:07:05.175Z,69.80
2022-08-16T01:09:37.157Z,69.90
2022-08-16T01:12:08.755Z,70.00
2022-08-16T01:14:45.193Z,70.00
2022-08-16T01:17:17.088Z,69.90
2022-08-16T01:19:48.409Z,69.90
2022-08-16T01:22:49.641Z,69.90
2022-08-16T01:25:38.759Z,70.00
2022-08-16T01:28:11.191Z,70.00
2022-08-16T01:30:52.297Z,70.00
2022-08-16T01:33:22.464Z,70.00
2022-08-16T01:35:54.315Z,70.00
2022-08-16T01:38:31.758Z,70.00
2022-08-16T01:41:06.590Z,69.90
2022-08-16T01:43:36.227Z,69.90
2022-08-16T01:46:30.175Z,69.90
2022-08-16T01:49:01.366Z,69.90
2022-08-16T01:51:29.071Z,70.00
2022-08-16T01:53:58.354Z,70.00
2022-08-16T01:56:30.260Z,70.20
2022-08-16T01:59:00.352Z,70.30
2022-08-16T02:01:28.960Z,70.40
2022-08-16T02:03:58.414Z,70.50
2022-08-16T02:06:34.220Z,70.50
2022-08-16T02:09:05.268Z,70.60
2022-08-16T02:11:42.962Z,70.60
2022-08-16T02:14:18.466Z,70.70
2022-08-16T02:16:49.806Z,70.70
2022-08-16T02:19:18.656Z,70.80
2022-08-16T02:22:08.862Z,70.80
2022-08-16T02:24:46.011Z,70.80
2022-08-16T02:27:14.125Z,70.70
2022-08-16T02:29:43.060Z,70.70
2022-08-16T02:32:50.940Z,70.70
2022-08-16T02:35:04.577Z,70.70
2022-08-16T02:37:51.590Z,70.50
2022-08-16T02:40:23.661Z,70.40
2022-08-16T02:42:54.028Z,70.30
2022-08-16T02:45:27.659Z,70.10
2022-08-16T02:48:00.518Z,70.10
2022-08-16T02:50:55.186Z,70.10
2022-08-16T02:53:15.264Z,70.10
2022-08-16T02:55:46.173Z,70.00
2022-08-16T02:58:18.997Z,69.90
2022-08-16T03:00:50.294Z,69.90
2022-08-16T03:03:18.578Z,69.80
2022-08-16T03:05:50.035Z,69.80
2022-08-16T03:08:50.487Z,69.80
2022-08-16T03:11:16.715Z,69.90
2022-08-16T03:13:51.397Z,70.00
2022-08-16T03:16:37.763Z,70.10
2022-08-16T03:19:10.695Z,70.20
2022-08-16T03:21:38.870Z,70.30
2022-08-16T03:24:28.994Z,70.40
2022-08-16T03:26:59.213Z,70.50
2022-08-16T03:29:32.034Z,70.50
2022-08-16T03:32:01.785Z,70.50
2022-08-16T03:34:30.742Z,70.60
2022-08-16T03:36:58.324Z,70.50
2022-08-16T03:39:25.683Z,70.50
2022-08-16T03:41:59.652Z,70.50
2022-08-16T03:44:40.743Z,70.50
2022-08-16T03:47:12.775Z,70.50
2022-08-16T03:49:51.887Z,70.50
2022-08-16T03:52:23.611Z,70.50
2022-08-16T03:54:58.130Z,70.60
2022-08-16T03:57:32.070Z,70.70
2022-08-16T04:00:20.776Z,70.90
2022-08-16T04:03:08.539Z,71.10
2022-08-16T04:05:46.757Z,71.20
2022-08-16T04:08:22.717Z,71.30
2022-08-16T04:10:58.281Z,71.40
2022-08-16T04:14:01.799Z,71.50
2022-08-16T04:16:27.636Z,71.50
2022-08-16T04:19:07.602Z,71.50
2022-08-16T04:21:46.011Z,71.50
2022-08-16T04:24:18.477Z,71.50
2022-08-16T04:26:46.898Z,71.60
2022-08-16T04:29:23.943Z,71.60
2022-08-16T04:31:56.201Z,71.60
2022-08-16T04:34:30.719Z,71.60
2022-08-16T04:37:01.572Z,71.60
2022-08-16T04:39:37.156Z,71.50
2022-08-16T04:42:17.305Z,71.50
2022-08-16T04:44:54.042Z,71.50
2022-08-16T04:47:31.740Z,71.60
2022-08-16T04:50:14.540Z,71.80
2022-08-16T04:52:58.104Z,71.80
2022-08-16T04:55:31.786Z,71.70
2022-08-16T04:58:44.198Z,71.80
2022-08-16T05:00:57.872Z,71.90
2022-08-16T05:03:26.210Z,72.00
2022-08-16T05:05:55.908Z,72.10
2022-08-16T05:08:30.978Z,72.20
2022-08-16T05:11:08.994Z,72.30
2022-08-16T05:13:40.334Z,72.40
2022-08-16T05:16:21.840Z,72.40
2022-08-16T05:18:57.028Z,72.60
2022-08-16T05:21:38.016Z,72.70
2022-08-16T05:24:09.072Z,72.80
2022-08-16T05:26:43.283Z,72.90
2022-08-16T05:29:17.335Z,73.10
2022-08-16T05:32:01.406Z,73.10
2022-08-16T05:34:29.732Z,73.20
2022-08-16T05:36:57.487Z,73.30
2022-08-16T05:39:33.651Z,73.30
2022-08-16T05:42:08.085Z,73.30
2022-08-16T05:44:37.567Z,73.30
2022-08-16T05:47:05.943Z,73.40
2022-08-16T05:49:38.433Z,73.40
2022-08-16T05:52:13.411Z,73.50
2022-08-16T05:54:47.327Z,73.60
2022-08-16T05:57:19.251Z,73.70
2022-08-16T05:59:50.693Z,73.80
2022-08-16T06:02:33.457Z,73.90
2022-08-16T06:05:03.159Z,74.00
2022-08-16T06:07:32.108Z,74.10
2022-08-16T06:10:08.109Z,74.10
2022-08-16T06:12:37.693Z,74.10
2022-08-16T06:15:16.694Z,74.20
2022-08-16T06:17:45.175Z,74.30
2022-08-16T06:20:23.378Z,74.50
2022-08-16T06:22:57.585Z,74.70
2022-08-16T06:25:36.258Z,74.80
2022-08-16T06:28:09.419Z,74.90
2022-08-16T06:30:43.736Z,75.00
2022-08-16T06:33:19.699Z,75.20
2022-08-16T06:35:55.334Z,75.40
2022-08-16T06:38:33.711Z,75.50
2022-08-16T06:41:13.828Z,75.60
2022-08-16T06:43:43.105Z,75.60
2022-08-16T06:46:34.324Z,75.60
2022-08-16T06:49:11.293Z,75.60
2022-08-16T06:51:46.705Z,75.60
2022-08-16T06:54:20.888Z,75.60
2022-08-16T06:56:48.066Z,75.60
2022-08-16T06:59:25.546Z,75.50
2022-08-16T07:01:58.521Z,75.50
2022-08-16T07:04:33.123Z,75.50
2022-08-16T07:07:11.461Z,75.50
2022-08-16T07:09:42.120Z,75.50
2022-08-16T07:12:09.827Z,75.50
2022-08-16T07:14:41.451Z,75.40
2022-08-16T07:17:12.943Z,75.40
2022-08-16T07:20:02.989Z,75.30
2022-08-16T07:22:52.510Z,75.20
2022-08-16T07:25:31.614Z,75.20
2022-08-16T07:28:00.817Z,75.20
2022-08-16T07:30:46.003Z,75.20
2022-08-16T07:33:51.802Z,75.10
2022-08-16T07:36:25.061Z,75.00
2022-08-16T07:38:52.917Z,74.90
2022-08-16T07:41:21.243Z,74.80
2022-08-16T07:43:55.322Z,74.80
2022-08-16T07:46:37.937Z,74.70
2022-08-16T07:49:16.188Z,74.60
2022-08-16T07:51:45.807Z,74.50
2022-08-16T07:54:20.675Z,74.50
2022-08-16T07:56:53.825Z,74.40
2022-08-16T07:59:21.645Z,74.40
2022-08-16T08:01:49.266Z,74.30
2022-08-16T08:04:20.879Z,74.30
2022-08-16T08:06:50.912Z,74.30
2022-08-16T08:09:19.193Z,74.20
2022-08-16T08:11:59.835Z,74.00
2022-08-16T08:14:34.179Z,74.00
2022-08-16T08:17:01.841Z,73.90
2022-08-16T08:19:31.450Z,74.00
2022-08-16T08:22:02.557Z,73.80
2022-08-16T08:24:46.870Z,73.70
2022-08-16T08:27:22.437Z,73.60
2022-08-16T08:30:48.786Z,73.50
2022-08-16T08:32:59.945Z,73.40
2022-08-16T08:35:27.025Z,72.90
2022-08-16T08:37:56.412Z,72.20
2022-08-16T08:40:29.569Z,71.70
2022-08-16T08:43:12.205Z,71.30
2022-08-16T08:45:48.006Z,71.10
2022-08-16T08:48:33.863Z,70.80
2022-08-16T08:51:13.716Z,70.40
2022-08-16T08:53:57.462Z,69.90
2022-08-16T08:56:30.454Z,69.40
2022-08-16T08:59:13.173Z,69.00
2022-08-16T09:01:56.632Z,68.50
2022-08-16T09:04:26.966Z,68.10
2022-08-16T09:06:55.655Z,68.00
2022-08-16T09:09:33.661Z,67.90
2022-08-16T09:12:06.947Z,67.60
2022-08-16T09:46:45.613Z,66.50
2022-08-16T09:49:20.015Z,62.30
2022-08-16T09:51:50.043Z,61.90
2022-08-16T09:54:17.425Z,61.60
2022-08-16T09:56:52.701Z,61.60
2022-08-16T09:59:20.998Z,61.50
2022-08-16T10:01:51.675Z,61.30
2022-08-16T10:04:33.187Z,60.80
2022-08-16T10:07:11.972Z,60.20
2022-08-16T10:09:55.209Z,60.10
2022-08-16T10:12:55.824Z,59.80
2022-08-16T10:15:24.575Z,59.50
2022-08-16T10:18:01.174Z,59.30
2022-08-16T10:20:33.991Z,58.80
2022-08-16T10:23:06.773Z,58.30
2022-08-16T10:27:19.483Z,58.00
2022-08-16T10:28:40.027Z,57.80
2022-08-16T10:31:12.021Z,57.50
2022-08-16T10:33:44.011Z,57.20
2022-08-16T10:36:12.411Z,57.10
2022-08-16T10:38:59.471Z,57.10
2022-08-16T10:41:26.586Z,57.10
2022-08-16T10:43:54.187Z,57.20
2022-08-16T10:46:40.042Z,57.10
2022-08-16T10:49:10.976Z,57.10
2022-08-16T10:52:01.186Z,56.90
2022-08-16T10:54:29.342Z,56.70
2022-08-16T10:57:04.263Z,56.50
2022-08-16T10:59:46.958Z,56.40
2022-08-16T11:03:37.599Z,56.40
2022-08-16T11:05:12.616Z,56.00
2022-08-16T11:07:51.701Z,56.00
2022-08-16T11:13:57.200Z,54.70
2022-08-16T11:19:05.288Z,54.40
2022-08-16T11:21:35.106Z,54.40
2022-08-16T11:24:02.178Z,54.30
2022-08-16T11:26:29.816Z,54.30
2022-08-16T11:29:13.873Z,53.60
2022-08-16T11:31:45.569Z,52.60
2022-08-16T11:34:14.425Z,52.30
2022-08-16T11:36:59.497Z,52.60
2022-08-16T11:39:32.005Z,52.50
2022-08-16T11:42:02.533Z,52.40
2022-08-16T11:44:52.382Z,52.00
2022-08-16T11:47:21.728Z,52.00
2022-08-16T11:49:48.851Z,52.00
2022-08-16T11:52:17.777Z,52.10
2022-08-16T11:54:56.758Z,52.00
2022-08-16T11:57:24.212Z,51.70
2022-08-16T11:59:51.958Z,50.70
2022-08-16T12:02:31.460Z,50.60
2022-08-16T12:04:59.895Z,50.90
2022-08-16T12:07:28.178Z,50.90
2022-08-16T12:09:55.311Z,50.90
2022-08-16T12:12:23.903Z,50.90
2022-08-16T12:15:00.140Z,51.20
2022-08-16T12:17:32.080Z,50.90
2022-08-16T12:20:00.903Z,50.80
2022-08-16T12:22:29.139Z,51.00
2022-08-16T12:24:56.512Z,51.20
2022-08-16T12:27:25.542Z,50.90
2022-08-16T12:29:53.998Z,50.60
2022-08-16T12:32:35.851Z,50.10
2022-08-16T12:35:11.863Z,49.20
2022-08-16T12:37:39.823Z,49.00
2022-08-16T12:40:24.859Z,49.00
2022-08-16T12:42:54.257Z,48.80
2022-08-16T12:45:22.817Z,48.70
2022-08-16T12:48:32.793Z,48.20
2022-08-16T12:50:57.407Z,48.10
2022-08-16T12:53:24.655Z,48.00
2022-08-16T12:55:52.790Z,48.10
2022-08-16T12:58:49.328Z,48.00
2022-08-16T13:01:09.475Z,48.10
2022-08-16T13:03:40.627Z,47.90
2022-08-16T13:06:08.817Z,47.70
2022-08-16T13:08:36.391Z,47.60
2022-08-16T13:11:07.893Z,47.80
2022-08-16T13:13:35.789Z,48.10
2022-08-16T13:16:15.948Z,48.20
2022-08-16T13:18:52.583Z,48.20
2022-08-16T13:21:23.851Z,48.10
2022-08-16T13:23:55.596Z,48.00
2022-08-16T13:26:24.135Z,47.90
2022-08-16T13:28:53.503Z,47.90
2022-08-16T13:31:20.401Z,47.80
2022-08-16T13:33:47.592Z,47.30
2022-08-16T13:36:38.792Z,47.30
2022-08-16T13:39:03.824Z,47.20
2022-08-16T13:41:31.759Z,47.00
2022-08-16T13:44:00.746Z,46.90
2022-08-16T13:46:29.973Z,47.20
2022-08-16T13:48:57.884Z,47.30
2022-08-16T13:51:25.511Z,47.30
2022-08-16T13:54:02.575Z,47.40
2022-08-16T13:56:37.669Z,47.60
2022-08-16T13:59:19.512Z,47.70
2022-08-16T14:01:55.695Z,47.70
2022-08-16T14:04:26.613Z,47.60
2022-08-16T14:06:55.403Z,47.50
2022-08-16T14:09:24.423Z,47.60
2022-08-16T14:11:54.452Z,47.70
2022-08-16T14:14:29.181Z,47.80
2022-08-16T14:17:02.102Z,48.10
2022-08-16T14:19:30.016Z,48.20
2022-08-16T14:22:15.141Z,48.30
2022-08-16T14:24:50.095Z,48.70
2022-08-16T14:27:19.612Z,48.90
2022-08-16T14:29:49.980Z,48.90
2022-08-16T14:32:27.008Z,48.90
2022-08-16T14:35:04.611Z,49.00
2022-08-16T14:37:34.963Z,49.20
2022-08-16T14:40:03.584Z,49.30
2022-08-16T14:42:30.907Z,49.30
2022-08-16T14:44:57.987Z,49.20
2022-08-16T14:47:34.148Z,48.90
2022-08-16T14:50:02.733Z,48.70
2022-08-16T14:52:54.032Z,48.80
2022-08-16T14:55:17.155Z,48.70
2022-08-16T14:57:44.115Z,48.50
2022-08-16T15:00:13.338Z,48.60
2022-08-16T15:02:42.915Z,48.50
2022-08-16T15:05:11.917Z,48.60
2022-08-16T15:07:40.299Z,48.80
2022-08-16T15:10:12.133Z,48.90
2022-08-16T15:12:56.249Z,48.80
2022-08-16T15:15:27.843Z,48.80
2022-08-16T15:17:56.958Z,48.80
2022-08-16T15:20:30.013Z,48.80
2022-08-16T15:22:59.737Z,48.70
2022-08-16T15:25:31.899Z,48.50
2022-08-16T15:28:02.536Z,48.50
2022-08-16T15:30:58.088Z,48.40
2022-08-16T15:33:25.463Z,48.50
2022-08-16T15:35:55.391Z,48.80
2022-08-16T15:38:57.874Z,48.80
2022-08-16T15:41:29.072Z,48.80
2022-08-16T15:44:04.830Z,48.80
2022-08-16T15:46:54.717Z,48.80
2022-08-16T15:49:20.337Z,48.90
2022-08-16T15:51:48.168Z,48.80
2022-08-16T15:54:30.010Z,48.80
2022-08-16T15:57:09.668Z,48.90
2022-08-16T15:59:48.116Z,49.00
2022-08-16T16:02:27.238Z,49.20
2022-08-16T16:04:54.891Z,49.20
2022-08-16T16:07:22.303Z,49.20
2022-08-16T16:09:49.781Z,49.10
2022-08-16T16:12:50.473Z,49.20
2022-08-16T16:15:07.859Z,49.40
2022-08-16T16:17:35.535Z,49.60
2022-08-16T16:20:05.242Z,49.50
2022-08-16T16:22:40.786Z,49.40
2022-08-16T16:25:07.862Z,49.30
2022-08-16T16:27:36.206Z,49.30
2022-08-16T16:30:11.310Z,49.70
2022-08-16T16:32:51.744Z,49.70
2022-08-16T16:35:19.008Z,49.60
2022-08-16T16:37:56.563Z,49.50
2022-08-16T16:40:32.296Z,49.40
2022-08-16T16:43:00.623Z,49.40
2022-08-16T16:45:33.503Z,49.30
2022-08-16T16:48:12.439Z,49.30
2022-08-16T16:50:44.597Z,49.10
2022-08-16T16:53:16.927Z,49.00
2022-08-16T16:55:52.250Z,48.90
2022-08-16T16:58:43.390Z,48.80
2022-08-16T17:01:20.941Z,48.80
2022-08-16T17:04:13.139Z,48.90
2022-08-16T17:06:53.352Z,48.80
2022-08-16T17:09:20.964Z,48.90
2022-08-16T17:11:55.213Z,49.10
2022-08-16T17:14:32.411Z,49.40
2022-08-16T17:17:05.146Z,49.60
2022-08-16T17:19:32.611Z,49.80
2022-08-16T17:22:02.095Z,50.00
2022-08-16T17:24:39.824Z,50.10
2022-08-16T17:27:11.682Z,50.00
2022-08-16T17:29:46.490Z,49.70
2022-08-16T17:32:34.010Z,49.50
2022-08-16T17:35:18.458Z,49.50
2022-08-16T17:37:51.937Z,49.50
2022-08-16T17:40:25.787Z,49.60
2022-08-16T17:43:10.279Z,50.00
2022-08-16T17:45:39.242Z,50.30
2022-08-16T17:48:06.689Z,50.60
2022-08-16T17:50:33.811Z,50.70
2022-08-16T17:53:04.201Z,50.60
2022-08-16T17:55:34.611Z,50.70
2022-08-16T17:58:01.850Z,51.00
2022-08-16T18:00:47.420Z,51.30
2022-08-16T18:04:09.126Z,51.50
2022-08-16T18:06:16.734Z,51.70
2022-08-16T18:08:48.534Z,52.00
2022-08-16T18:11:18.259Z,52.20
2022-08-16T18:13:46.645Z,52.40
2022-08-16T18:16:16.631Z,52.60
2022-08-16T18:18:46.076Z,52.90
2022-08-16T18:21:33.166Z,53.20
2022-08-16T18:24:00.281Z,53.30
2022-08-16T18:26:27.277Z,53.30
2022-08-16T18:28:54.268Z,53.40
2022-08-16T18:31:21.283Z,53.70
2022-08-16T18:33:49.438Z,54.10
2022-08-16T18:36:21.873Z,54.20
2022-08-16T18:38:50.148Z,54.10
2022-08-16T18:41:18.719Z,53.60
2022-08-16T18:43:54.396Z,53.30
2022-08-16T18:46:32.687Z,53.10
2022-08-16T18:48:59.839Z,53.50
2022-08-16T18:51:26.945Z,54.10
2022-08-16T18:53:54.229Z,54.40
2022-08-16T18:56:21.245Z,54.90
2022-08-16T18:58:49.067Z,55.70
2022-08-16T19:01:16.747Z,56.70
2022-08-16T19:03:43.864Z,57.70
2022-08-16T19:06:15.132Z,58.40
2022-08-16T19:08:44.604Z,58.80
2022-08-16T19:11:23.478Z,59.20
2022-08-16T19:13:50.706Z,59.50
2022-08-16T19:16:18.079Z,59.80
2022-08-16T19:18:49.852Z,60.00
2022-08-16T19:21:16.808Z,60.30
2022-08-16T19:23:44.587Z,60.60
2022-08-16T19:26:24.905Z,60.90
2022-08-16T19:28:58.746Z,61.30
2022-08-16T19:31:32.733Z,61.80
2022-08-16T19:34:00.843Z,62.20
2022-08-16T19:36:35.299Z,62.30
2022-08-16T19:39:05.972Z,62.40
2022-08-16T19:41:38.217Z,62.70
2022-08-16T19:44:06.732Z,63.10
2022-08-16T19:46:34.411Z,63.50
2022-08-16T19:49:01.474Z,63.90
2022-08-16T19:51:29.032Z,64.10
2022-08-16T19:53:56.165Z,64.40
2022-08-16T19:56:25.734Z,64.70
2022-08-16T20:01:42.772Z,65.10
2022-08-16T20:04:12.552Z,65.40
2022-08-16T20:06:40.523Z,65.60
2022-08-16T20:09:07.596Z,65.80
2022-08-16T20:11:35.362Z,66.00
2022-08-16T20:14:02.749Z,66.30
2022-08-16T20:16:29.980Z,66.40
2022-08-16T20:18:56.967Z,66.50
2022-08-16T20:21:24.321Z,66.60
2022-08-16T20:23:51.649Z,66.70
2022-08-16T20:26:19.046Z,66.80
2022-08-16T20:28:54.331Z,66.70
2022-08-16T20:31:23.842Z,66.70
2022-08-16T20:33:51.757Z,66.80
2022-08-16T20:36:18.759Z,66.90
2022-08-16T20:38:47.724Z,67.00
2022-08-16T20:41:16.118Z,67.10
2022-08-16T20:43:43.402Z,67.10
2022-08-16T20:46:10.693Z,67.10
2022-08-16T20:48:37.723Z,67.10
2022-08-16T20:51:06.789Z,67.20
2022-08-16T20:53:34.048Z,67.20
2022-08-16T20:56:01.070Z,67.30
2022-08-16T20:58:28.035Z,67.40
2022-08-16T21:00:55.023Z,67.50
2022-08-16T21:03:21.993Z,67.60
2022-08-16T21:05:48.990Z,67.80
2022-08-16T21:08:27.893Z,68.00
2022-08-16T21:11:06.326Z,68.10
2022-08-16T21:13:33.987Z,68.10
2022-08-16T21:16:02.547Z,68.20
2022-08-16T21:18:29.619Z,68.30
2022-08-16T21:20:56.568Z,68.30
2022-08-16T21:23:23.581Z,68.40
2022-08-16T21:25:59.053Z,68.50
2022-08-16T21:28:41.873Z,68.60
2022-08-16T21:31:15.262Z,68.60
2022-08-16T21:33:44.320Z,68.70
2022-08-16T21:36:14.420Z,68.80
2022-08-16T21:38:41.302Z,68.90
2022-08-16T21:41:10.200Z,68.80
2022-08-16T21:43:37.152Z,68.90
2022-08-16T21:46:05.706Z,68.90
2022-08-16T21:48:34.519Z,68.90
2022-08-16T21:51:08.332Z,69.00
2022-08-16T21:53:37.842Z,69.20
2022-08-16T21:56:05.320Z,69.20
2022-08-16T21:58:33.075Z,69.30
2022-08-16T22:01:01.241Z,69.40
2022-08-16T22:03:32.439Z,69.50
2022-08-16T22:06:13.303Z,69.60
2022-08-16T22:08:48.855Z,69.70
2022-08-16T22:11:22.584Z,69.90
2022-08-16T22:13:57.430Z,70.00
2022-08-16T22:16:33.265Z,70.00
2022-08-16T22:19:01.484Z,70.10
2022-08-16T22:21:28.883Z,70.10
2022-08-16T22:23:58.404Z,70.20
2022-08-16T22:26:39.747Z,70.30
2022-08-16T22:29:13.042Z,70.40
2022-08-16T22:31:41.481Z,70.50
2022-08-16T22:34:09.008Z,70.60
2022-08-16T22:36:36.953Z,70.60
2022-08-16T22:39:06.383Z,70.70
2022-08-16T22:41:34.932Z,70.80
2022-08-16T22:44:03.618Z,71.00
2022-08-16T22:46:30.948Z,71.10
2022-08-16T22:48:57.935Z,71.10
2022-08-16T22:51:26.875Z,71.10
2022-08-16T22:53:55.456Z,71.20
2022-08-16T22:56:23.641Z,71.30
2022-08-16T22:58:50.584Z,71.40
2022-08-16T23:01:19.777Z,71.40
2022-08-16T23:03:46.817Z,71.40
2022-08-16T23:06:14.381Z,71.40
2022-08-16T23:08:43.052Z,71.40
2022-08-16T23:11:19.466Z,71.40
2022-08-16T23:13:53.241Z,71.40
2022-08-16T23:16:33.502Z,71.50
2022-08-16T23:19:10.601Z,71.50
2022-08-16T23:21:40.793Z,71.50
2022-08-16T23:24:08.763Z,71.50
2022-08-16T23:26:46.654Z,71.60
2022-08-16T23:29:24.423Z,71.60
2022-08-16T23:31:59.069Z,71.70
2022-08-16T23:34:28.383Z,71.70
2022-08-16T23:36:55.870Z,71.80
2022-08-16T23:39:23.802Z,71.90
2022-08-16T23:41:50.859Z,71.90
2022-08-16T23:44:56.369Z,72.00
2022-08-16T23:47:06.292Z,72.00
2022-08-16T23:49:58.439Z,72.10
2022-08-16T23:52:45.724Z,72.10
2022-08-16T23:55:08.444Z,72.20
2022-08-16T23:57:35.358Z,72.20
